Time;durP1;ratioP1;P1;durP2;ratioP2;P2;SDS_P1;SDS_P2;PMS_P1;PMS_P2;Temp;Humidity;BMP_temperature;BMP_pressure;BME280_temperature;BME280_humidity;BME280_pressure;Samples;Min_cycle;Max_cycle;Signal;HPM_P1;HPM_P2
2022/04/15 00:00:34;;;;;;;5.32;4.70;;;13.80;99.90;;;14.65;77.28;98411.59;5222762;28;20224;-58
2022/04/15 00:03:07;;;;;;;5.03;4.57;;;13.70;99.90;;;14.60;76.96;98410.47;5226839;28;20249;-57
2022/04/15 00:05:45;;;;;;;5.05;4.63;;;13.70;99.90;;;14.55;77.39;98410.22;5225455;28;20217;-57
2022/04/15 00:08:18;;;;;;;5.13;4.72;;;13.60;99.90;;;14.51;78.17;98402.28;5225190;28;20201;-57
2022/04/15 00:10:51;;;;;;;4.80;4.35;;;13.60;99.90;;;14.38;77.72;98400.75;5224736;28;20292;-57
2022/04/15 00:13:25;;;;;;;6.47;4.60;;;13.50;99.90;;;14.22;77.91;98404.22;5226067;28;20224;-56
2022/04/15 00:15:59;;;;;;;4.72;4.40;;;13.30;99.90;;;14.20;77.89;98405.84;5225050;28;20303;-56
2022/04/15 00:18:34;;;;;;;4.57;4.28;;;13.30;99.90;;;14.21;79.12;98410.16;5227491;28;20254;-56
2022/04/15 00:21:09;;;;;;;5.22;4.72;;;13.30;99.90;;;14.21;78.85;98412.75;5225609;28;20672;-54
2022/04/15 00:23:42;;;;;;;5.25;4.70;;;13.30;99.90;;;14.18;79.79;98428.00;5221142;28;20266;-57
2022/04/15 00:26:15;;;;;;;5.28;4.78;;;13.30;99.90;;;14.18;79.10;98428.88;5226823;28;20265;-58
2022/04/15 00:28:49;;;;;;;6.18;4.85;;;13.30;99.90;;;14.11;80.30;98423.38;5225792;28;20245;-57
2022/04/15 00:31:22;;;;;;;6.15;4.50;;;13.20;99.90;;;14.08;79.80;98433.47;5225677;28;20283;-55
2022/04/15 00:33:55;;;;;;;5.47;4.55;;;13.20;99.90;;;14.09;79.02;98427.53;5224276;28;20653;-57
2022/04/15 00:36:30;;;;;;;5.07;4.68;;;13.20;99.90;;;14.06;80.65;98428.25;5225817;28;20308;-58
2022/04/15 00:39:03;;;;;;;5.22;4.72;;;13.20;99.90;;;14.04;79.28;98424.72;5226878;28;20280;-54
2022/04/15 00:41:37;;;;;;;5.18;4.57;;;13.20;99.90;;;13.98;79.49;98430.41;5226968;28;20197;-55
2022/04/15 00:44:10;;;;;;;5.22;4.32;;;13.10;99.90;;;13.90;78.96;98429.13;5226003;28;20744;-56
2022/04/15 00:46:43;;;;;;;6.07;4.32;;;13.00;99.90;;;13.91;79.85;98423.19;5226170;28;20244;-57
2022/04/15 00:49:16;;;;;;;5.38;4.88;;;13.00;99.90;;;13.96;80.36;98426.91;5224177;28;20321;-58
2022/04/15 00:51:51;;;;;;;4.65;4.25;;;13.10;99.90;;;13.96;80.95;98421.75;5224641;28;20717;-54
2022/04/15 00:54:29;;;;;;;5.85;5.35;;;13.10;99.90;;;13.95;81.55;98425.13;5224433;28;20201;-57
2022/04/15 00:57:04;;;;;;;5.20;4.80;;;13.10;99.90;;;13.94;81.19;98436.22;5229651;28;20213;-53
2022/04/15 00:59:39;;;;;;;5.22;4.72;;;13.10;99.90;;;13.91;81.29;98433.47;5220136;28;20675;-58
2022/04/15 01:02:17;;;;;;;4.72;4.32;;;13.10;99.90;;;13.97;81.32;98428.66;5225030;28;20204;-57
2022/04/15 01:04:53;;;;;;;5.22;4.78;;;13.00;99.90;;;14.05;79.49;98426.50;5225552;28;20233;-54
2022/04/15 01:07:30;;;;;;;5.28;4.72;;;12.90;99.90;;;14.04;79.98;98426.41;5220112;28;20292;-59
2022/04/15 01:10:07;;;;;;;5.00;4.60;;;13.00;99.90;;;13.98;79.50;98422.72;5225812;28;20793;-56
2022/04/15 01:12:46;;;;;;;5.32;4.82;;;12.90;99.90;;;13.92;80.53;98429.22;5225386;28;20228;-55
2022/04/15 01:15:39;;;;;;;5.57;5.03;;;12.90;99.90;;;13.86;80.87;98429.78;5221046;28;20232;-58
2022/04/15 01:18:12;;;;;;;5.25;4.72;;;12.90;99.90;;;13.72;80.84;98433.28;5225312;28;20233;-57
2022/04/15 01:20:49;;;;;;;5.63;5.05;;;12.80;99.90;;;13.66;82.50;98436.41;5223722;28;20639;-54
2022/04/15 01:23:24;;;;;;;5.20;4.80;;;12.90;99.90;;;13.67;81.21;98433.03;5224448;28;20246;-56
2022/04/15 01:25:57;;;;;;;5.25;4.75;;;12.80;99.90;;;13.69;82.19;98430.56;5223787;28;20660;-57
2022/04/15 01:28:30;;;;;;;5.43;4.93;;;12.90;99.90;;;13.74;82.08;98447.13;5225256;28;20236;-54
2022/04/15 01:31:03;;;;;;;4.85;4.38;;;12.90;99.90;;;13.78;82.16;98443.91;5221532;28;20209;-56
2022/04/15 01:33:36;;;;;;;7.35;5.00;;;12.90;99.90;;;13.75;81.99;98441.16;5225028;28;20670;-55
2022/04/15 01:36:10;;;;;;;5.35;4.85;;;12.90;99.90;;;13.67;81.89;98438.16;5220975;28;20593;-57
2022/04/15 01:38:44;;;;;;;5.68;5.03;;;12.80;99.90;;;13.72;82.37;98433.28;5224910;28;20303;-56
2022/04/15 01:41:17;;;;;;;5.20;4.88;;;12.80;99.90;;;13.73;81.64;98437.63;5223931;28;20228;-55
2022/04/15 01:43:51;;;;;;;5.07;4.53;;;12.80;99.90;;;13.73;82.61;98438.53;5223990;28;20323;-57
2022/04/15 01:46:24;;;;;;;6.90;4.85;;;12.80;99.90;;;13.75;81.08;98436.91;5223076;28;20245;-56
2022/04/15 01:48:57;;;;;;;5.55;5.03;;;12.80;99.90;;;13.60;81.73;98435.22;5220100;28;20236;-56
2022/04/15 01:51:34;;;;;;;7.38;4.82;;;12.70;99.90;;;13.47;81.42;98436.19;5223674;28;20197;-56
2022/04/15 01:54:09;;;;;;;6.15;5.53;;;12.60;99.90;;;13.46;82.39;98437.91;5223893;28;20594;-58
2022/04/15 01:56:42;;;;;;;5.90;5.30;;;12.60;99.90;;;13.46;83.05;98440.47;5222225;28;20311;-58
2022/04/15 01:59:15;;;;;;;5.65;5.13;;;12.60;99.90;;;13.50;83.52;98436.38;5223106;28;20291;-57
2022/04/15 02:01:48;;;;;;;5.55;5.05;;;12.70;99.90;;;13.49;83.32;98443.19;5218041;28;20295;-57
2022/04/15 02:04:22;;;;;;;5.55;4.90;;;12.70;99.90;;;13.46;83.83;98448.16;5224624;28;20229;-55
2022/04/15 02:06:55;;;;;;;5.85;5.38;;;12.60;99.90;;;13.47;83.15;98439.66;5223261;28;20232;-58
2022/04/15 02:09:30;;;;;;;6.72;5.57;;;12.60;99.90;;;13.46;83.57;98437.00;5223536;28;20264;-54
2022/04/15 02:12:04;;;;;;;6.68;6.15;;;12.60;99.90;;;13.42;84.40;98443.69;5221642;28;20300;-56
2022/04/15 02:14:37;;;;;;;5.95;5.45;;;12.60;99.90;;;13.47;83.70;98438.78;5221889;28;20225;-58
2022/04/15 02:17:10;;;;;;;5.80;5.40;;;12.60;99.90;;;13.42;83.12;98443.69;5223566;28;20630;-56
2022/04/15 02:19:43;;;;;;;5.85;5.30;;;12.50;99.90;;;13.31;83.62;98442.19;5222960;28;20735;-56
2022/04/15 02:22:16;;;;;;;6.22;5.70;;;12.40;99.90;;;13.06;82.99;98451.03;5222839;28;20247;-56
2022/04/15 02:24:50;;;;;;;5.65;5.25;;;12.20;99.90;;;12.97;83.76;98445.38;5220212;28;20312;-54
2022/04/15 02:27:24;;;;;;;5.95;5.40;;;12.20;99.90;;;13.02;83.53;98461.94;5223766;28;20640;-59
2022/04/15 02:29:57;;;;;;;5.70;5.20;;;12.10;99.90;;;13.00;85.23;98458.38;5223455;28;20736;-57
2022/04/15 02:32:31;;;;;;;6.05;5.45;;;12.20;99.90;;;12.91;85.14;98457.88;5223759;28;20292;-58
2022/04/15 02:35:08;;;;;;;5.55;5.10;;;12.10;99.90;;;12.89;85.23;98458.56;5224253;28;20315;-58
2022/04/15 02:37:41;;;;;;;5.57;5.18;;;12.10;99.90;;;12.79;85.63;98457.13;5219396;28;20276;-59
2022/04/15 02:40:16;;;;;;;5.80;5.30;;;12.00;99.90;;;12.83;85.66;98457.41;5224031;28;20220;-59
2022/04/15 02:42:49;;;;;;;6.22;5.63;;;12.00;99.90;;;12.82;85.02;98452.22;5223546;28;20239;-56
2022/04/15 02:45:33;;;;;;;6.13;5.72;;;12.00;99.90;;;12.79;84.74;98454.56;5223640;28;20217;-58
2022/04/15 02:48:07;;;;;;;6.28;5.78;;;11.90;99.90;;;12.79;84.92;98458.06;5223356;28;20243;-59
2022/04/15 02:50:40;;;;;;;6.07;5.47;;;11.90;99.90;;;12.76;85.12;98460.44;5223299;28;20249;-55
2022/04/15 02:53:13;;;;;;;5.68;5.07;;;11.80;99.90;;;12.72;84.42;98457.59;5222322;28;20224;-56
2022/04/15 02:55:47;;;;;;;5.82;5.43;;;11.80;99.90;;;12.68;84.75;98463.34;5223127;28;20684;-54
2022/04/15 02:58:21;;;;;;;5.78;5.38;;;11.70;99.90;;;12.53;85.13;98465.88;5222107;28;20196;-54
2022/04/15 03:00:54;;;;;;;6.03;5.53;;;11.70;99.90;;;12.28;85.82;98461.00;5220658;28;20228;-54
2022/04/15 03:03:27;;;;;;;6.50;5.97;;;11.40;99.90;;;12.24;86.45;98456.47;5220508;28;20201;-54
2022/04/15 03:06:02;;;;;;;6.05;4.95;;;11.40;99.90;;;12.31;86.42;98456.06;5222651;28;20263;-57
2022/04/15 03:08:35;;;;;;;5.90;5.40;;;11.40;99.90;;;12.23;86.35;98453.03;5217936;28;20230;-55
2022/04/15 03:11:09;;;;;;;5.43;4.93;;;11.40;99.90;;;12.23;86.78;98457.25;5218541;28;20324;-58
2022/04/15 03:13:42;;;;;;;6.47;5.38;;;11.40;99.90;;;12.22;86.10;98447.78;5217680;28;20262;-56
2022/04/15 03:16:15;;;;;;;5.55;5.05;;;11.30;99.90;;;12.16;86.26;98453.44;5221553;28;20224;-55
2022/04/15 03:18:49;;;;;;;7.05;5.60;;;11.30;99.90;;;12.08;87.30;98452.97;5224771;28;20642;-54
2022/04/15 03:21:22;;;;;;;6.13;5.65;;;11.30;99.90;;;12.07;86.87;98458.88;5221978;28;20255;-57
2022/04/15 03:23:55;;;;;;;6.07;5.57;;;11.30;99.90;;;12.05;86.87;98460.50;5222376;28;20208;-57
2022/04/15 03:26:29;;;;;;;5.88;5.35;;;11.20;99.90;;;12.04;87.53;98460.38;5224058;28;20244;-57
2022/04/15 03:29:03;;;;;;;6.28;5.68;;;11.30;99.90;;;12.02;87.50;98460.31;5225791;28;20197;-54
2022/04/15 03:31:36;;;;;;;5.88;5.38;;;11.20;99.90;;;11.96;88.06;98465.06;5225551;28;20244;-57
2022/04/15 03:34:09;;;;;;;5.88;5.28;;;11.20;99.90;;;11.86;86.98;98472.94;5225081;28;20197;-55
2022/04/15 03:36:42;;;;;;;5.57;5.18;;;11.10;99.90;;;11.82;86.94;98468.41;5221170;28;20635;-53
2022/04/15 03:39:15;;;;;;;5.97;4.90;;;11.00;99.90;;;11.83;87.62;98467.59;5225279;28;20660;-55
2022/04/15 03:41:50;;;;;;;5.15;4.75;;;11.10;99.90;;;11.81;87.57;98474.31;5222975;28;20229;-54
2022/04/15 03:44:23;;;;;;;5.88;5.10;;;11.00;99.90;;;11.84;87.64;98479.63;5225392;28;20232;-56
2022/04/15 03:46:56;;;;;;;5.68;5.07;;;11.00;99.90;;;11.70;88.19;98474.53;5226266;28;20292;-56
2022/04/15 03:49:29;;;;;;;5.85;5.35;;;10.90;99.90;;;11.72;87.66;98472.94;5225176;28;20243;-55
2022/04/15 03:52:03;;;;;;;5.70;5.20;;;10.90;99.90;;;11.69;87.12;98482.09;5224192;28;20205;-56
2022/04/15 03:54:36;;;;;;;6.13;5.45;;;10.80;99.90;;;11.63;86.51;98482.59;5226784;28;20201;-54
2022/04/15 03:57:11;;;;;;;5.85;5.40;;;10.80;99.90;;;11.59;86.48;98477.19;5189825;28;1064153;-54
2022/04/15 03:59:44;;;;;;;6.28;5.63;;;10.70;99.90;;;11.47;87.99;98484.97;5227717;28;20291;-54
2022/04/15 04:02:17;;;;;;;6.95;5.78;;;10.70;99.90;;;11.41;88.39;98482.91;5224506;28;20648;-54
2022/04/15 04:04:50;;;;;;;6.43;5.78;;;10.60;99.90;;;11.41;88.90;98487.16;5226546;28;20249;-59
2022/04/15 04:07:23;;;;;;;5.97;5.55;;;10.70;99.90;;;11.41;87.87;98482.03;5222988;28;20291;-56
2022/04/15 04:09:56;;;;;;;5.38;4.97;;;10.70;99.90;;;11.45;87.96;98478.91;5226611;28;20283;-57
2022/04/15 04:12:34;;;;;;;6.25;5.65;;;10.60;99.90;;;11.41;87.46;98488.03;5226234;28;20279;-57
2022/04/15 04:15:09;;;;;;;6.63;5.32;;;10.50;99.90;;;11.36;87.13;98488.53;5223503;28;20312;-57
2022/04/15 04:17:43;;;;;;;5.93;5.53;;;10.50;99.90;;;11.35;87.18;98485.09;5226333;28;20193;-57
2022/04/15 04:20:17;;;;;;;6.22;5.72;;;10.50;99.90;;;11.31;86.88;98485.69;5224304;28;20292;-54
2022/04/15 04:22:51;;;;;;;5.50;5.07;;;10.50;99.90;;;11.33;87.00;98490.91;5226083;28;20733;-53
2022/04/15 04:25:24;;;;;;;6.13;5.70;;;10.40;99.90;;;11.24;88.44;98497.19;5226882;28;20644;-55
2022/04/15 04:27:58;;;;;;;5.97;5.38;;;10.40;99.90;;;11.24;87.20;98488.63;5226403;28;20189;-55
2022/04/15 04:30:31;;;;;;;6.22;5.63;;;10.40;99.90;;;11.18;88.41;98499.34;5225218;28;20227;-53
2022/04/15 04:33:05;;;;;;;6.63;5.95;;;10.40;99.90;;;11.17;88.42;98501.84;5226036;28;20236;-52
2022/04/15 04:35:39;;;;;;;5.80;5.40;;;10.40;99.90;;;11.18;88.22;98494.25;5222955;28;20369;-53
2022/04/15 04:38:12;;;;;;;6.13;5.73;;;10.40;99.90;;;11.17;88.31;98502.72;5222095;28;20236;-53
2022/04/15 04:40:46;;;;;;;6.10;5.63;;;10.30;99.90;;;11.18;87.54;98509.59;5222748;28;20288;-56
2022/04/15 04:43:22;;;;;;;5.63;4.97;;;10.30;99.90;;;11.18;88.02;98509.59;5223265;28;20284;-58
2022/04/15 04:45:55;;;;;;;6.15;5.65;;;10.40;99.90;;;11.10;87.14;98510.75;5225322;28;20307;-52
2022/04/15 04:48:28;;;;;;;5.22;4.93;;;10.30;99.90;;;11.16;88.49;98515.38;5224409;28;20203;-54
2022/04/15 04:51:01;;;;;;;5.75;5.35;;;10.30;99.90;;;11.20;89.85;98512.25;5225612;28;20271;-52
2022/04/15 04:53:35;;;;;;;6.37;5.87;;;10.40;99.90;;;11.11;87.81;98519.34;5224111;28;20193;-52
2022/04/15 04:56:08;;;;;;;6.55;6.00;;;10.30;99.90;;;11.12;88.99;98510.88;5223367;28;20229;-53
2022/04/15 04:58:42;;;;;;;6.18;5.68;;;10.40;99.90;;;11.25;88.63;98516.91;5226608;28;20604;-54
2022/04/15 05:01:15;;;;;;;7.35;5.78;;;10.50;99.90;;;11.32;88.96;98522.41;5223591;28;20189;-52
2022/04/15 05:03:48;;;;;;;6.75;6.18;;;10.50;99.90;;;11.36;88.80;98515.03;5222370;28;20548;-53
2022/04/15 05:06:22;;;;;;;6.40;5.80;;;10.50;99.90;;;11.31;87.86;98524.09;5223340;28;20708;-52
2022/04/15 05:08:55;;;;;;;6.10;5.57;;;10.50;99.90;;;11.38;87.46;98527.91;5224094;28;20661;-52
2022/04/15 05:11:28;;;;;;;5.53;5.13;;;10.50;99.90;;;11.47;86.57;98528.50;5225211;28;20249;-56
2022/04/15 05:14:02;;;;;;;6.17;5.67;;;10.60;99.90;;;11.48;87.74;98531.19;5222650;28;20193;-52
2022/04/15 05:16:36;;;;;;;6.90;5.60;;;10.70;99.90;;;11.60;86.71;98525.94;5224400;28;20244;-55
2022/04/15 05:19:09;;;;;;;6.07;5.60;;;10.70;99.90;;;11.63;85.87;98533.81;5225141;28;20292;-53
2022/04/15 05:21:42;;;;;;;5.43;5.03;;;10.70;99.90;;;11.76;84.99;98532.94;5225920;28;20201;-55
2022/04/15 05:24:15;;;;;;;7.05;5.13;;;10.80;99.90;;;11.83;83.34;98539.31;5225857;28;20236;-52
2022/04/15 05:26:48;;;;;;;5.72;5.15;;;10.80;99.90;;;12.07;83.75;98540.88;5225721;28;20303;-54
2022/04/15 05:29:23;;;;;;;5.93;5.40;;;10.90;99.90;;;12.34;81.89;98540.81;5224309;28;20288;-54
2022/04/15 05:31:56;;;;;;;5.60;5.00;;;11.20;99.90;;;12.64;81.13;98536.66;5223487;28;20213;-52
2022/04/15 05:34:29;;;;;;;5.35;5.00;;;11.40;99.90;;;12.94;80.39;98544.41;5224127;28;20288;-56
2022/04/15 05:37:02;;;;;;;5.10;4.70;;;11.70;99.90;;;13.19;78.72;98549.25;5224971;28;20292;-53
2022/04/15 05:39:35;;;;;;;5.22;4.60;;;11.90;99.90;;;13.61;78.09;98550.00;5225410;28;20626;-56
2022/04/15 05:42:09;;;;;;;4.93;4.63;;;12.10;99.90;;;13.92;75.68;98552.56;5222977;28;20205;-53
2022/04/15 05:44:43;;;;;;;5.57;5.07;;;12.40;99.90;;;14.06;75.13;98558.47;5225180;28;20304;-52
2022/04/15 05:47:16;;;;;;;5.38;4.93;;;12.70;99.90;;;14.39;73.11;98556.81;5222677;28;20283;-53
2022/04/15 05:49:49;;;;;;;5.50;5.07;;;13.00;99.90;;;14.79;72.07;98559.88;5225292;28;20240;-54
2022/04/15 05:52:22;;;;;;;5.30;4.93;;;13.20;99.90;;;15.02;70.65;98562.69;5222916;28;20241;-53
2022/04/15 05:54:56;;;;;;;5.32;4.93;;;13.40;99.90;;;15.23;69.61;98561.22;5222912;28;20272;-53
2022/04/15 05:57:30;;;;;;;5.30;4.80;;;13.60;99.90;;;15.41;68.79;98568.09;5223330;28;20200;-52
2022/04/15 06:00:07;;;;;;;5.15;4.75;;;13.70;99.90;;;15.62;68.04;98568.25;5219199;28;20297;-57
2022/04/15 06:02:40;;;;;;;5.05;4.65;;;13.80;99.90;;;15.82;66.86;98566.66;5215655;28;20293;-54
2022/04/15 06:05:13;;;;;;;5.65;5.15;;;13.90;99.90;;;16.03;66.64;98572.88;5222616;28;20231;-55
2022/04/15 06:07:46;;;;;;;5.75;5.25;;;14.10;99.90;;;16.06;65.93;98570.41;5219876;28;20306;-57
2022/04/15 06:10:20;;;;;;;6.38;5.78;;;14.20;99.90;;;16.00;66.05;98575.28;5217841;28;20612;-57
2022/04/15 06:13:02;;;;;;;6.63;6.05;;;14.30;99.90;;;16.34;65.92;98569.09;5209391;28;20264;-57
2022/04/15 06:15:41;;;;;;;5.88;5.47;;;14.50;99.90;;;16.29;64.78;98574.06;5214624;28;20697;-57
2022/04/15 06:18:14;;;;;;;5.88;5.38;;;14.50;99.90;;;16.59;64.39;98571.97;5211094;28;20973;-56
2022/04/15 06:20:48;;;;;;;5.43;4.93;;;14.50;99.90;;;16.68;64.77;98576.66;5214763;28;20288;-57
2022/04/15 06:23:21;;;;;;;5.57;5.10;;;14.60;99.90;;;16.79;63.97;98575.47;5220288;28;20228;-55
2022/04/15 06:25:54;;;;;;;5.80;5.30;;;14.80;99.90;;;16.96;63.53;98573.63;5221997;28;20311;-57
2022/04/15 06:28:27;;;;;;;5.85;5.35;;;15.00;99.90;;;17.25;62.86;98579.16;5220981;28;20236;-54
2022/04/15 06:31:02;;;;;;;5.03;4.63;;;15.20;99.90;;;17.63;62.49;98574.75;5219784;28;20237;-53
2022/04/15 06:33:37;;;;;;;5.13;4.72;;;15.80;99.90;;;17.86;61.03;98573.97;5221588;28;20220;-54
2022/04/15 06:36:10;;;;;;;5.53;5.03;;;15.90;99.90;;;18.23;59.54;98575.44;5222352;28;20228;-57
2022/04/15 06:38:43;;;;;;;5.45;4.63;;;16.10;99.90;;;18.59;58.43;98564.66;5221299;28;20284;-58
2022/04/15 06:41:16;;;;;;;5.03;4.63;;;16.50;99.90;;;18.96;58.19;98571.22;5220324;28;20292;-58
2022/04/15 06:43:49;;;;;;;5.80;4.93;;;16.70;99.90;;;19.17;56.59;98574.53;5220916;28;20288;-58
2022/04/15 06:46:24;;;;;;;5.68;4.82;;;17.00;99.90;;;19.21;56.94;98568.66;5220479;28;20209;-55
2022/04/15 06:48:57;;;;;;;5.45;5.00;;;17.20;99.90;;;19.27;57.36;98568.84;5219370;28;20205;-56
2022/04/15 06:51:31;;;;;;;5.50;5.03;;;17.20;99.90;;;19.55;55.99;98569.78;5215133;28;20201;-59
2022/04/15 06:54:04;;;;;;;5.05;4.60;;;17.30;99.90;;;20.05;54.86;98565.34;5217751;28;20303;-59
2022/04/15 06:56:37;;;;;;;5.20;4.80;;;17.70;99.90;;;20.21;53.71;98565.00;5219211;28;20712;-58
2022/04/15 06:59:10;;;;;;;5.82;5.43;;;17.80;99.90;;;20.53;53.17;98566.84;5221490;28;20307;-58
2022/04/15 07:01:46;;;;;;;5.90;5.35;;;18.20;99.90;;;20.73;52.73;98570.00;5222789;28;20637;-59
2022/04/15 07:04:20;;;;;;;6.05;5.53;;;18.30;99.90;;;20.98;52.02;98563.78;5220014;28;20284;-57
2022/04/15 07:06:53;;;;;;;5.75;4.82;;;18.60;99.90;;;21.31;51.20;98571.56;5220949;28;20208;-59
2022/04/15 07:09:27;;;;;;;5.50;4.97;;;18.90;99.60;;;21.53;50.49;98563.50;5221797;28;20205;-59
2022/04/15 07:12:00;;;;;;;5.70;5.30;;;18.90;99.70;;;21.87;49.65;98563.47;5222082;28;20229;-56
2022/04/15 07:14:33;;;;;;;5.65;5.18;;;19.10;99.20;;;21.73;49.72;98571.81;5224170;28;20193;-57
2022/04/15 07:17:07;;;;;;;5.38;4.97;;;18.80;99.20;;;21.04;51.77;98561.34;5223718;28;20206;-61
2022/04/15 07:19:44;;;;;;;6.10;5.50;;;18.60;99.90;;;21.38;50.80;98564.84;5221941;28;20207;-53
2022/04/15 07:22:18;;;;;;;5.88;5.38;;;18.80;99.60;;;21.87;48.96;98556.53;5221138;28;20221;-56
2022/04/15 07:24:51;;;;;;;5.88;5.38;;;19.10;98.70;;;21.85;48.15;98570.34;5223193;28;20221;-56
2022/04/15 07:27:24;;;;;;;5.57;5.18;;;19.30;97.80;;;21.80;49.85;98570.22;5222283;28;20284;-56
2022/04/15 07:29:57;;;;;;;5.60;4.90;;;19.20;99.10;;;22.12;48.44;98564.88;5222476;28;20287;-56
2022/04/15 07:32:32;;;;;;;5.43;5.00;;;19.30;98.20;;;22.24;48.10;98560.00;5221879;28;20331;-57
2022/04/15 07:35:07;;;;;;;5.60;4.90;;;19.60;97.90;;;21.74;49.28;98562.25;5222774;28;20247;-59
2022/04/15 07:37:40;;;;;;;5.35;4.95;;;19.50;98.00;;;21.75;49.56;98569.25;5223336;28;20204;-55
2022/04/15 07:40:13;;;;;;;5.50;5.05;;;19.50;97.90;;;21.98;49.44;98554.19;5221263;28;20197;-55
2022/04/15 07:42:46;;;;;;;5.30;4.70;;;19.90;97.60;;;22.17;49.03;98565.88;5222442;28;20669;-55
2022/04/15 07:45:20;;;;;;;7.45;5.30;;;20.10;97.40;;;22.14;49.13;98560.59;5222719;28;20228;-60
2022/04/15 07:47:54;;;;;;;5.70;5.20;;;20.00;97.00;;;21.95;49.38;98562.78;5217751;28;20262;-52
2022/04/15 07:50:27;;;;;;;4.82;4.43;;;20.00;97.10;;;22.18;48.24;98559.88;5224821;28;20200;-53
2022/04/15 07:53:01;;;;;;;5.43;5.03;;;20.10;96.70;;;22.31;48.19;98564.47;5220097;28;20644;-52
2022/04/15 07:55:34;;;;;;;6.15;5.45;;;20.50;95.90;;;22.24;47.41;98552.19;5227048;28;20295;-55
2022/04/15 07:58:07;;;;;;;5.82;5.32;;;20.50;95.30;;;22.14;47.70;98564.06;5225300;28;20240;-57
2022/04/15 08:00:42;;;;;;;7.53;6.82;;;20.50;95.50;;;22.15;47.00;98559.72;5221107;28;20201;-54
2022/04/15 08:03:20;;;;;;;7.38;6.03;;;20.40;94.90;;;21.55;48.89;98560.97;5221722;28;20204;-55
2022/04/15 08:05:53;;;;;;;5.22;4.60;;;20.20;95.70;;;22.14;48.50;98550.19;5226417;28;20255;-59
2022/04/15 08:08:26;;;;;;;4.85;4.47;;;20.70;95.20;;;22.58;47.02;98560.72;5223876;28;20234;-57
2022/04/15 08:10:59;;;;;;;5.90;5.40;;;21.00;94.50;;;22.62;45.88;98552.97;5225197;28;20288;-61
2022/04/15 08:13:33;;;;;;;7.57;6.25;;;20.80;94.30;;;22.52;45.64;98560.56;5224859;28;20250;-56
2022/04/15 08:16:08;;;;;;;6.20;5.57;;;20.80;93.70;;;22.62;45.51;98559.94;5224034;28;20867;-57
2022/04/15 08:18:43;;;;;;;5.65;5.18;;;21.00;93.40;;;22.45;46.49;98554.38;5226122;28;20193;-56
2022/04/15 08:21:17;;;;;;;5.95;5.45;;;20.90;93.90;;;22.32;46.37;98557.53;5226525;28;20220;-57
2022/04/15 08:23:50;;;;;;;6.03;5.53;;;20.90;94.00;;;22.62;45.44;98557.31;5231428;28;20228;-59
2022/04/15 08:26:23;;;;;;;6.78;6.18;;;21.00;93.40;;;22.66;44.97;98553.91;5229423;28;20666;-57
2022/04/15 08:28:56;;;;;;;6.25;5.72;;;21.20;92.90;;;22.59;44.80;98557.25;5227249;28;20193;-57
2022/04/15 08:31:29;;;;;;;6.90;6.30;;;21.10;92.50;;;22.46;45.08;98556.09;5225433;28;20241;-55
2022/04/15 08:34:04;;;;;;;7.28;6.57;;;21.00;92.50;;;22.54;44.67;98559.75;5226661;28;20221;-56
2022/04/15 08:36:37;;;;;;;7.18;6.47;;;21.20;92.10;;;22.55;44.75;98565.84;5219277;28;20234;-56
2022/04/15 08:39:10;;;;;;;7.82;7.22;;;21.20;92.10;;;22.56;44.49;98559.81;5226128;28;20233;-59
2022/04/15 08:41:43;;;;;;;8.18;7.47;;;21.40;91.70;;;22.76;43.98;98566.28;5226127;28;20227;-54
2022/04/15 08:44:17;;;;;;;8.73;7.95;;;21.40;91.70;;;22.84;43.77;98564.72;5226391;28;20293;-58
2022/04/15 08:46:51;;;;;;;9.05;8.23;;;21.40;91.50;;;22.94;43.32;98557.94;5216598;28;20320;-58
2022/04/15 08:49:27;;;;;;;9.77;8.90;;;21.50;91.30;;;22.98;43.38;98564.13;5221452;28;20680;-56
2022/04/15 08:52:01;;;;;;;10.00;9.10;;;21.70;91.10;;;23.01;42.59;98566.81;5222851;28;20231;-56
2022/04/15 08:54:35;;;;;;;9.52;8.73;;;21.80;90.30;;;23.02;42.76;98560.75;5223370;28;20255;-56
2022/04/15 08:57:08;;;;;;;9.63;8.70;;;21.80;90.40;;;23.05;42.30;98566.91;5226200;28;20305;-57
2022/04/15 08:59:41;;;;;;;10.10;8.93;;;21.80;90.10;;;23.18;41.69;98568.03;5227055;28;20251;-53
2022/04/15 09:02:32;;;;;;;9.65;8.75;;;21.80;89.40;;;23.19;42.13;98563.69;5222556;28;20229;-57
2022/04/15 09:05:09;;;;;;;10.90;9.90;;;21.80;90.00;;;23.21;41.25;98555.03;5223216;28;20221;-54
2022/04/15 09:07:42;;;;;;;9.82;8.93;;;22.00;88.40;;;23.49;41.53;98556.34;5218782;28;20284;-55
2022/04/15 09:10:18;;;;;;;10.23;9.30;;;22.40;88.60;;;23.63;41.31;98556.59;5224440;28;20197;-54
2022/04/15 09:12:53;;;;;;;9.60;8.73;;;22.50;87.90;;;23.17;42.26;98559.28;5224476;28;20579;-59
2022/04/15 09:15:26;;;;;;;7.60;6.95;;;22.10;89.00;;;22.88;41.99;98563.06;5223206;28;20294;-54
2022/04/15 09:18:01;;;;;;;7.75;7.05;;;21.80;88.50;;;22.71;43.26;98554.91;5224167;28;20292;-56
2022/04/15 09:20:36;;;;;;;8.40;7.63;;;21.50;90.10;;;22.44;44.32;98555.22;5223998;28;20657;-53
2022/04/15 09:23:11;;;;;;;10.60;9.15;;;21.10;91.20;;;21.98;45.38;98568.06;5222838;28;20224;-58
2022/04/15 09:25:44;;;;;;;9.18;8.27;;;20.80;91.60;;;22.12;44.05;98564.88;5224153;28;20240;-55
2022/04/15 09:28:17;;;;;;;9.38;8.57;;;21.00;90.60;;;22.30;44.75;98559.25;5225394;28;20653;-54
2022/04/15 09:30:51;;;;;;;9.98;8.98;;;21.30;90.70;;;22.15;43.57;98565.84;5223874;28;20276;-54
2022/04/15 09:33:24;;;;;;;8.93;8.15;;;21.40;89.80;;;22.45;43.79;98555.22;5218183;28;20311;-55
2022/04/15 09:35:58;;;;;;;9.18;8.38;;;21.50;90.10;;;22.58;43.43;98563.34;5222454;28;20300;-55
2022/04/15 09:38:42;;;;;;;8.80;8.10;;;21.40;90.20;;;22.53;42.89;98567.56;5221974;28;20624;-55
2022/04/15 09:41:21;;;;;;;10.25;9.25;;;21.10;90.30;;;22.23;43.80;98568.63;5224294;28;20284;-55
2022/04/15 09:43:56;;;;;;;8.68;8.05;;;21.00;90.60;;;21.94;43.76;98566.22;5222429;28;20221;-60
2022/04/15 09:46:31;;;;;;;9.25;8.40;;;20.60;90.20;;;21.55;42.34;98569.63;5224451;28;20248;-59
2022/04/15 09:49:06;;;;;;;9.93;9.02;;;20.50;88.60;;;21.46;41.94;98572.00;5223537;28;20197;-59
2022/04/15 09:51:45;;;;;;;10.13;9.27;;;20.30;87.80;;;21.04;44.09;98563.94;5219664;28;20251;-60
2022/04/15 09:54:23;;;;;;;10.18;9.27;;;20.20;89.60;;;21.34;45.49;98566.44;5221256;28;20213;-60
2022/04/15 09:56:58;;;;;;;8.07;7.47;;;20.50;90.70;;;21.62;43.21;98573.25;5225233;28;20212;-58
2022/04/15 09:59:31;;;;;;;7.45;6.82;;;20.80;88.50;;;22.12;41.73;98564.88;5225443;28;20288;-58
2022/04/15 10:02:11;;;;;;;8.25;7.57;;;21.20;85.80;;;22.38;41.35;98560.31;5221880;28;20229;-58
2022/04/15 10:04:45;;;;;;;8.85;8.07;;;21.70;86.00;;;22.73;39.81;98561.03;5222467;28;20724;-59
2022/04/15 10:07:20;;;;;;;9.10;8.30;;;22.00;83.50;;;22.52;39.80;98560.56;5220668;28;20944;-59
2022/04/15 10:09:55;;;;;;;9.70;8.90;;;21.70;83.40;;;22.66;40.03;98561.72;5219785;28;20292;-59
2022/04/15 10:12:29;;;;;;;8.68;7.97;;;21.40;85.00;;;22.46;39.99;98548.28;5220729;28;20633;-58
2022/04/15 10:15:03;;;;;;;8.88;8.15;;;21.20;84.60;;;22.37;40.23;98553.31;5223990;28;20311;-57
2022/04/15 10:17:39;;;;;;;8.80;8.00;;;21.10;85.40;;;22.11;40.84;98553.59;5223688;28;20288;-58
2022/04/15 10:20:12;;;;;;;14.98;7.55;;;21.00;85.30;;;22.04;41.36;98554.31;5223309;28;20249;-60
2022/04/15 10:22:47;;;;;;;7.22;6.50;;;20.90;85.90;;;22.22;39.79;98556.47;5223681;28;20201;-52
2022/04/15 10:25:20;;;;;;;6.55;5.95;;;21.10;82.60;;;22.48;37.78;98546.59;5221602;28;20227;-54
2022/04/15 10:27:53;;;;;;;10.43;9.55;;;21.40;80.00;;;22.64;38.08;98550.41;5220455;28;20314;-55
2022/04/15 10:30:27;;;;;;;7.28;6.68;;;21.60;80.70;;;22.85;37.59;98544.75;5224066;28;20236;-61
2022/04/15 10:33:00;;;;;;;7.57;6.03;;;21.90;79.50;;;23.11;38.28;98547.88;5222919;28;20201;-60
2022/04/15 10:35:35;;;;;;;6.70;6.07;;;22.10;80.10;;;22.67;38.53;98545.28;5223168;28;20227;-58
2022/04/15 10:38:13;;;;;;;5.75;5.13;;;21.90;81.00;;;22.64;38.14;98545.22;5225928;28;20204;-59
2022/04/15 10:40:46;;;;;;;6.82;6.30;;;21.60;80.50;;;22.45;37.49;98543.94;5223402;28;20224;-57
2022/04/15 10:43:22;;;;;;;6.88;6.32;;;21.20;79.90;;;22.01;38.57;98552.50;5223353;28;20236;-56
2022/04/15 10:46:15;;;;;;;8.02;7.25;;;20.90;81.80;;;22.11;39.19;98544.91;5214505;28;20311;-57